sensor_id;sensor_type;location;lat;lon;timestamp;P1;durP1;ratioP1;P2;durP2;ratioP2
36233;SDS011;43467;50.890;5.982;2022-12-07T00:00:26;24.05;;;16.45;;
36233;SDS011;43467;50.890;5.982;2022-12-07T00:02:52;20.27;;;15.25;;
36233;SDS011;43467;50.890;5.982;2022-12-07T00:05:17;22.02;;;15.57;;
36233;SDS011;43467;50.890;5.982;2022-12-07T00:07:42;21.65;;;15.82;;
36233;SDS011;43467;50.890;5.982;2022-12-07T00:10:08;25.55;;;16.55;;
36233;SDS011;43467;50.890;5.982;2022-12-07T00:12:33;24.08;;;15.63;;
36233;SDS011;43467;50.890;5.982;2022-12-07T00:14:58;28.30;;;17.48;;
36233;SDS011;43467;50.890;5.982;2022-12-07T00:17:24;27.20;;;17.00;;
36233;SDS011;43467;50.890;5.982;2022-12-07T00:19:49;28.90;;;16.92;;
36233;SDS011;43467;50.890;5.982;2022-12-07T00:22:14;26.75;;;17.63;;
36233;SDS011;43467;50.890;5.982;2022-12-07T00:24:40;31.35;;;18.23;;
36233;SDS011;43467;50.890;5.982;2022-12-07T00:27:05;27.50;;;17.30;;
36233;SDS011;43467;50.890;5.982;2022-12-07T00:29:30;23.15;;;16.75;;
36233;SDS011;43467;50.890;5.982;2022-12-07T00:31:56;24.63;;;17.73;;
36233;SDS011;43467;50.890;5.982;2022-12-07T00:34:21;27.05;;;18.05;;
36233;SDS011;43467;50.890;5.982;2022-12-07T00:36:47;29.85;;;17.83;;
36233;SDS011;43467;50.890;5.982;2022-12-07T00:39:13;30.95;;;18.75;;
36233;SDS011;43467;50.890;5.982;2022-12-07T00:41:38;34.25;;;20.58;;
36233;SDS011;43467;50.890;5.982;2022-12-07T00:44:04;26.30;;;17.42;;
36233;SDS011;43467;50.890;5.982;2022-12-07T00:46:29;24.05;;;18.15;;
36233;SDS011;43467;50.890;5.982;2022-12-07T00:48:55;27.55;;;18.23;;
36233;SDS011;43467;50.890;5.982;2022-12-07T00:51:21;25.27;;;18.27;;
36233;SDS011;43467;50.890;5.982;2022-12-07T00:53:48;27.55;;;17.02;;
36233;SDS011;43467;50.890;5.982;2022-12-07T00:56:24;28.95;;;17.50;;
36233;SDS011;43467;50.890;5.982;2022-12-07T01:01:21;27.90;;;17.15;;
36233;SDS011;43467;50.890;5.982;2022-12-07T01:03:49;23.98;;;17.35;;
36233;SDS011;43467;50.890;5.982;2022-12-07T01:06:15;25.38;;;17.40;;
36233;SDS011;43467;50.890;5.982;2022-12-07T01:08:42;24.25;;;17.17;;
36233;SDS011;43467;50.890;5.982;2022-12-07T01:11:09;24.27;;;15.65;;
36233;SDS011;43467;50.890;5.982;2022-12-07T01:13:39;25.27;;;17.38;;
36233;SDS011;43467;50.890;5.982;2022-12-07T01:16:05;23.00;;;16.90;;
36233;SDS011;43467;50.890;5.982;2022-12-07T01:18:32;26.10;;;18.48;;
36233;SDS011;43467;50.890;5.982;2022-12-07T01:21:09;24.70;;;18.48;;
36233;SDS011;43467;50.890;5.982;2022-12-07T01:23:37;23.77;;;18.17;;
36233;SDS011;43467;50.890;5.982;2022-12-07T01:26:04;31.75;;;19.90;;
36233;SDS011;43467;50.890;5.982;2022-12-07T01:28:32;29.67;;;19.70;;
36233;SDS011;43467;50.890;5.982;2022-12-07T01:30:59;25.27;;;18.77;;
36233;SDS011;43467;50.890;5.982;2022-12-07T01:33:26;25.42;;;19.13;;
36233;SDS011;43467;50.890;5.982;2022-12-07T01:35:53;30.10;;;19.90;;
36233;SDS011;43467;50.890;5.982;2022-12-07T01:38:19;25.08;;;18.77;;
36233;SDS011;43467;50.890;5.982;2022-12-07T01:40:44;31.75;;;21.75;;
36233;SDS011;43467;50.890;5.982;2022-12-07T01:43:16;32.67;;;21.20;;
36233;SDS011;43467;50.890;5.982;2022-12-07T01:45:43;31.17;;;21.17;;
36233;SDS011;43467;50.890;5.982;2022-12-07T01:48:09;30.05;;;21.60;;
36233;SDS011;43467;50.890;5.982;2022-12-07T01:50:37;31.85;;;21.67;;
36233;SDS011;43467;50.890;5.982;2022-12-07T01:53:06;33.70;;;21.20;;
36233;SDS011;43467;50.890;5.982;2022-12-07T01:55:34;33.97;;;21.88;;
36233;SDS011;43467;50.890;5.982;2022-12-07T01:58:05;32.80;;;22.60;;
36233;SDS011;43467;50.890;5.982;2022-12-07T02:00:31;32.83;;;23.45;;
36233;SDS011;43467;50.890;5.982;2022-12-07T02:03:01;33.55;;;23.15;;
36233;SDS011;43467;50.890;5.982;2022-12-07T02:05:31;35.05;;;23.73;;
36233;SDS011;43467;50.890;5.982;2022-12-07T02:07:58;36.15;;;23.10;;
36233;SDS011;43467;50.890;5.982;2022-12-07T02:10:28;34.70;;;22.17;;
36233;SDS011;43467;50.890;5.982;2022-12-07T02:13:06;35.90;;;24.58;;
36233;SDS011;43467;50.890;5.982;2022-12-07T02:18:15;32.13;;;21.63;;
36233;SDS011;43467;50.890;5.982;2022-12-07T02:20:59;33.28;;;22.75;;
36233;SDS011;43467;50.890;5.982;2022-12-07T02:29:14;34.45;;;22.83;;
36233;SDS011;43467;50.890;5.982;2022-12-07T02:31:45;34.72;;;22.67;;
36233;SDS011;43467;50.890;5.982;2022-12-07T02:34:32;32.92;;;23.02;;
36233;SDS011;43467;50.890;5.982;2022-12-07T02:37:08;35.03;;;21.85;;
36233;SDS011;43467;50.890;5.982;2022-12-07T02:42:47;41.90;;;22.65;;
36233;SDS011;43467;50.890;5.982;2022-12-07T02:45:17;33.00;;;21.83;;
36233;SDS011;43467;50.890;5.982;2022-12-07T02:47:51;36.42;;;23.05;;
36233;SDS011;43467;50.890;5.982;2022-12-07T02:50:21;34.70;;;23.35;;
36233;SDS011;43467;50.890;5.982;2022-12-07T02:52:47;32.85;;;22.33;;
36233;SDS011;43467;50.890;5.982;2022-12-07T02:55:12;33.28;;;23.70;;
36233;SDS011;43467;50.890;5.982;2022-12-07T02:57:49;38.38;;;23.73;;
36233;SDS011;43467;50.890;5.982;2022-12-07T03:00:43;35.63;;;23.70;;
36233;SDS011;43467;50.890;5.982;2022-12-07T03:03:17;36.20;;;23.30;;
36233;SDS011;43467;50.890;5.982;2022-12-07T03:11:14;37.20;;;24.77;;
36233;SDS011;43467;50.890;5.982;2022-12-07T03:14:09;36.17;;;25.05;;
36233;SDS011;43467;50.890;5.982;2022-12-07T03:17:04;40.80;;;24.08;;
36233;SDS011;43467;50.890;5.982;2022-12-07T03:19:30;40.10;;;23.77;;
36233;SDS011;43467;50.890;5.982;2022-12-07T03:22:09;37.63;;;24.52;;
36233;SDS011;43467;50.890;5.982;2022-12-07T03:24:47;37.47;;;24.40;;
36233;SDS011;43467;50.890;5.982;2022-12-07T03:27:27;33.03;;;22.75;;
36233;SDS011;43467;50.890;5.982;2022-12-07T03:30:00;35.13;;;24.50;;
36233;SDS011;43467;50.890;5.982;2022-12-07T03:32:50;36.42;;;24.33;;
36233;SDS011;43467;50.890;5.982;2022-12-07T03:35:27;35.33;;;23.90;;
36233;SDS011;43467;50.890;5.982;2022-12-07T03:38:00;38.15;;;25.30;;
36233;SDS011;43467;50.890;5.982;2022-12-07T03:40:35;35.45;;;23.17;;
36233;SDS011;43467;50.890;5.982;2022-12-07T03:43:05;38.45;;;23.67;;
36233;SDS011;43467;50.890;5.982;2022-12-07T03:45:41;34.42;;;25.10;;
36233;SDS011;43467;50.890;5.982;2022-12-07T03:48:28;34.17;;;22.45;;
36233;SDS011;43467;50.890;5.982;2022-12-07T03:53:46;42.60;;;26.25;;
36233;SDS011;43467;50.890;5.982;2022-12-07T03:56:17;33.55;;;23.48;;
36233;SDS011;43467;50.890;5.982;2022-12-07T03:58:44;33.33;;;22.88;;
36233;SDS011;43467;50.890;5.982;2022-12-07T04:01:09;39.75;;;24.75;;
36233;SDS011;43467;50.890;5.982;2022-12-07T04:03:35;38.05;;;25.30;;
36233;SDS011;43467;50.890;5.982;2022-12-07T04:06:01;37.70;;;24.80;;
36233;SDS011;43467;50.890;5.982;2022-12-07T04:08:26;37.05;;;24.55;;
36233;SDS011;43467;50.890;5.982;2022-12-07T04:10:52;40.90;;;25.23;;
36233;SDS011;43467;50.890;5.982;2022-12-07T04:13:17;37.88;;;25.45;;
36233;SDS011;43467;50.890;5.982;2022-12-07T04:15:42;37.80;;;24.73;;
36233;SDS011;43467;50.890;5.982;2022-12-07T04:18:08;36.15;;;25.80;;
36233;SDS011;43467;50.890;5.982;2022-12-07T04:20:33;35.55;;;24.38;;
36233;SDS011;43467;50.890;5.982;2022-12-07T04:22:59;40.75;;;25.55;;
36233;SDS011;43467;50.890;5.982;2022-12-07T04:25:24;39.92;;;25.55;;
36233;SDS011;43467;50.890;5.982;2022-12-07T04:27:49;37.08;;;24.83;;
36233;SDS011;43467;50.890;5.982;2022-12-07T04:30:15;37.85;;;25.02;;
36233;SDS011;43467;50.890;5.982;2022-12-07T04:32:40;35.92;;;23.92;;
36233;SDS011;43467;50.890;5.982;2022-12-07T04:35:06;37.35;;;23.80;;
36233;SDS011;43467;50.890;5.982;2022-12-07T04:37:31;33.20;;;22.40;;
36233;SDS011;43467;50.890;5.982;2022-12-07T04:39:57;37.92;;;24.63;;
36233;SDS011;43467;50.890;5.982;2022-12-07T04:42:22;37.30;;;24.20;;
36233;SDS011;43467;50.890;5.982;2022-12-07T04:44:48;36.72;;;23.92;;
36233;SDS011;43467;50.890;5.982;2022-12-07T04:47:13;36.00;;;24.02;;
36233;SDS011;43467;50.890;5.982;2022-12-07T04:49:38;41.70;;;25.20;;
36233;SDS011;43467;50.890;5.982;2022-12-07T04:52:04;37.03;;;23.88;;
36233;SDS011;43467;50.890;5.982;2022-12-07T04:54:29;35.55;;;24.20;;
36233;SDS011;43467;50.890;5.982;2022-12-07T04:56:54;36.90;;;22.23;;
36233;SDS011;43467;50.890;5.982;2022-12-07T04:59:20;40.75;;;23.92;;
36233;SDS011;43467;50.890;5.982;2022-12-07T05:01:45;37.97;;;24.13;;
36233;SDS011;43467;50.890;5.982;2022-12-07T05:04:11;39.90;;;23.67;;
36233;SDS011;43467;50.890;5.982;2022-12-07T05:06:36;32.55;;;22.15;;
36233;SDS011;43467;50.890;5.982;2022-12-07T05:09:02;35.30;;;23.58;;
36233;SDS011;43467;50.890;5.982;2022-12-07T05:11:28;31.42;;;22.42;;
36233;SDS011;43467;50.890;5.982;2022-12-07T05:14:03;42.83;;;23.85;;
36233;SDS011;43467;50.890;5.982;2022-12-07T05:16:31;35.65;;;22.88;;
36233;SDS011;43467;50.890;5.982;2022-12-07T05:18:57;33.72;;;22.25;;
36233;SDS011;43467;50.890;5.982;2022-12-07T05:21:22;37.80;;;24.25;;
36233;SDS011;43467;50.890;5.982;2022-12-07T05:23:48;34.88;;;23.17;;
36233;SDS011;43467;50.890;5.982;2022-12-07T05:26:13;34.47;;;22.50;;
36233;SDS011;43467;50.890;5.982;2022-12-07T05:28:39;32.88;;;21.77;;
36233;SDS011;43467;50.890;5.982;2022-12-07T05:31:04;38.67;;;23.55;;
36233;SDS011;43467;50.890;5.982;2022-12-07T05:33:29;38.03;;;22.65;;
36233;SDS011;43467;50.890;5.982;2022-12-07T05:35:55;34.13;;;22.35;;
36233;SDS011;43467;50.890;5.982;2022-12-07T05:38:20;34.15;;;22.02;;
36233;SDS011;43467;50.890;5.982;2022-12-07T05:40:45;38.33;;;23.73;;
36233;SDS011;43467;50.890;5.982;2022-12-07T05:43:11;34.38;;;22.55;;
36233;SDS011;43467;50.890;5.982;2022-12-07T05:45:36;35.65;;;21.42;;
36233;SDS011;43467;50.890;5.982;2022-12-07T05:48:01;34.63;;;22.65;;
36233;SDS011;43467;50.890;5.982;2022-12-07T05:50:27;39.10;;;23.40;;
36233;SDS011;43467;50.890;5.982;2022-12-07T05:52:53;31.90;;;21.90;;
36233;SDS011;43467;50.890;5.982;2022-12-07T05:55:18;41.08;;;24.40;;
36233;SDS011;43467;50.890;5.982;2022-12-07T05:57:44;37.53;;;24.55;;
36233;SDS011;43467;50.890;5.982;2022-12-07T06:00:29;42.25;;;25.23;;
36233;SDS011;43467;50.890;5.982;2022-12-07T06:02:55;39.25;;;24.05;;
36233;SDS011;43467;50.890;5.982;2022-12-07T06:05:20;33.42;;;22.98;;
36233;SDS011;43467;50.890;5.982;2022-12-07T06:07:45;40.38;;;24.85;;
36233;SDS011;43467;50.890;5.982;2022-12-07T06:10:11;41.70;;;24.58;;
36233;SDS011;43467;50.890;5.982;2022-12-07T06:12:36;38.13;;;23.77;;
36233;SDS011;43467;50.890;5.982;2022-12-07T06:15:04;37.20;;;24.38;;
36233;SDS011;43467;50.890;5.982;2022-12-07T06:17:30;37.38;;;24.70;;
36233;SDS011;43467;50.890;5.982;2022-12-07T06:19:56;36.83;;;23.48;;
36233;SDS011;43467;50.890;5.982;2022-12-07T06:22:21;36.47;;;23.88;;
36233;SDS011;43467;50.890;5.982;2022-12-07T06:24:47;39.20;;;23.70;;
36233;SDS011;43467;50.890;5.982;2022-12-07T06:27:12;38.88;;;24.90;;
36233;SDS011;43467;50.890;5.982;2022-12-07T06:29:38;42.53;;;24.42;;
36233;SDS011;43467;50.890;5.982;2022-12-07T06:32:03;42.90;;;25.50;;
36233;SDS011;43467;50.890;5.982;2022-12-07T06:34:29;34.00;;;23.02;;
36233;SDS011;43467;50.890;5.982;2022-12-07T06:36:55;40.47;;;24.77;;
36233;SDS011;43467;50.890;5.982;2022-12-07T06:39:21;40.10;;;25.23;;
36233;SDS011;43467;50.890;5.982;2022-12-07T06:41:49;42.15;;;24.33;;
36233;SDS011;43467;50.890;5.982;2022-12-07T06:44:16;39.42;;;25.17;;
36233;SDS011;43467;50.890;5.982;2022-12-07T06:46:42;42.05;;;23.90;;
36233;SDS011;43467;50.890;5.982;2022-12-07T06:49:07;42.50;;;24.52;;
36233;SDS011;43467;50.890;5.982;2022-12-07T06:51:33;37.00;;;23.85;;
36233;SDS011;43467;50.890;5.982;2022-12-07T06:54:01;42.65;;;26.35;;
36233;SDS011;43467;50.890;5.982;2022-12-07T06:56:29;43.97;;;25.58;;
36233;SDS011;43467;50.890;5.982;2022-12-07T06:58:55;39.63;;;24.20;;
36233;SDS011;43467;50.890;5.982;2022-12-07T07:01:20;37.10;;;26.08;;
36233;SDS011;43467;50.890;5.982;2022-12-07T07:03:46;42.65;;;25.20;;
36233;SDS011;43467;50.890;5.982;2022-12-07T07:06:11;39.72;;;25.55;;
36233;SDS011;43467;50.890;5.982;2022-12-07T07:08:37;42.45;;;25.20;;
36233;SDS011;43467;50.890;5.982;2022-12-07T07:11:04;41.70;;;26.38;;
36233;SDS011;43467;50.890;5.982;2022-12-07T07:13:30;42.17;;;25.98;;
36233;SDS011;43467;50.890;5.982;2022-12-07T07:15:55;42.75;;;26.13;;
36233;SDS011;43467;50.890;5.982;2022-12-07T07:18:21;41.20;;;24.88;;
36233;SDS011;43467;50.890;5.982;2022-12-07T07:20:46;40.35;;;25.13;;
36233;SDS011;43467;50.890;5.982;2022-12-07T07:23:12;39.42;;;26.08;;
36233;SDS011;43467;50.890;5.982;2022-12-07T07:25:37;39.67;;;26.52;;
36233;SDS011;43467;50.890;5.982;2022-12-07T07:28:03;44.25;;;27.48;;
36233;SDS011;43467;50.890;5.982;2022-12-07T07:30:29;38.15;;;24.17;;
36233;SDS011;43467;50.890;5.982;2022-12-07T07:32:58;38.67;;;25.13;;
36233;SDS011;43467;50.890;5.982;2022-12-07T07:35:24;38.83;;;25.45;;
36233;SDS011;43467;50.890;5.982;2022-12-07T07:37:51;41.22;;;25.25;;
36233;SDS011;43467;50.890;5.982;2022-12-07T07:40:16;41.67;;;26.17;;
36233;SDS011;43467;50.890;5.982;2022-12-07T07:42:42;41.40;;;25.98;;
36233;SDS011;43467;50.890;5.982;2022-12-07T07:45:08;37.70;;;24.83;;
36233;SDS011;43467;50.890;5.982;2022-12-07T07:47:34;37.40;;;25.35;;
36233;SDS011;43467;50.890;5.982;2022-12-07T07:49:59;42.05;;;24.10;;
36233;SDS011;43467;50.890;5.982;2022-12-07T07:52:25;39.95;;;24.92;;
36233;SDS011;43467;50.890;5.982;2022-12-07T07:54:51;35.00;;;22.90;;
36233;SDS011;43467;50.890;5.982;2022-12-07T07:57:16;37.80;;;24.35;;
36233;SDS011;43467;50.890;5.982;2022-12-07T07:59:42;40.28;;;22.55;;
36233;SDS011;43467;50.890;5.982;2022-12-07T08:02:17;33.85;;;22.35;;
36233;SDS011;43467;50.890;5.982;2022-12-07T08:04:44;31.80;;;20.60;;
36233;SDS011;43467;50.890;5.982;2022-12-07T08:07:10;32.17;;;21.08;;
36233;SDS011;43467;50.890;5.982;2022-12-07T08:09:36;32.20;;;19.85;;
36233;SDS011;43467;50.890;5.982;2022-12-07T08:12:02;29.55;;;19.38;;
36233;SDS011;43467;50.890;5.982;2022-12-07T08:14:27;32.72;;;19.63;;
36233;SDS011;43467;50.890;5.982;2022-12-07T08:16:53;30.48;;;19.42;;
36233;SDS011;43467;50.890;5.982;2022-12-07T08:19:19;32.75;;;19.00;;
36233;SDS011;43467;50.890;5.982;2022-12-07T08:21:45;31.00;;;19.23;;
36233;SDS011;43467;50.890;5.982;2022-12-07T08:24:10;28.77;;;20.02;;
36233;SDS011;43467;50.890;5.982;2022-12-07T08:26:36;32.63;;;20.90;;
36233;SDS011;43467;50.890;5.982;2022-12-07T08:29:01;30.83;;;20.42;;
36233;SDS011;43467;50.890;5.982;2022-12-07T08:31:27;35.10;;;21.35;;
36233;SDS011;43467;50.890;5.982;2022-12-07T08:33:53;37.25;;;23.02;;
36233;SDS011;43467;50.890;5.982;2022-12-07T08:36:19;40.35;;;23.10;;
36233;SDS011;43467;50.890;5.982;2022-12-07T08:38:45;44.42;;;25.40;;
36233;SDS011;43467;50.890;5.982;2022-12-07T08:41:10;43.83;;;24.65;;
36233;SDS011;43467;50.890;5.982;2022-12-07T08:43:36;42.50;;;26.08;;
36233;SDS011;43467;50.890;5.982;2022-12-07T08:46:13;43.92;;;26.60;;
36233;SDS011;43467;50.890;5.982;2022-12-07T08:48:50;46.63;;;26.25;;
36233;SDS011;43467;50.890;5.982;2022-12-07T08:51:22;43.30;;;26.95;;
36233;SDS011;43467;50.890;5.982;2022-12-07T08:53:48;43.38;;;25.98;;
36233;SDS011;43467;50.890;5.982;2022-12-07T08:56:16;47.00;;;27.98;;
36233;SDS011;43467;50.890;5.982;2022-12-07T08:58:41;46.03;;;28.10;;
36233;SDS011;43467;50.890;5.982;2022-12-07T09:01:07;45.38;;;26.42;;
36233;SDS011;43467;50.890;5.982;2022-12-07T09:03:33;50.70;;;29.52;;
36233;SDS011;43467;50.890;5.982;2022-12-07T09:05:58;51.90;;;27.67;;
36233;SDS011;43467;50.890;5.982;2022-12-07T09:08:26;41.58;;;26.75;;
36233;SDS011;43467;50.890;5.982;2022-12-07T09:10:55;45.33;;;26.70;;
36233;SDS011;43467;50.890;5.982;2022-12-07T09:13:21;45.38;;;26.17;;
36233;SDS011;43467;50.890;5.982;2022-12-07T09:15:46;46.95;;;26.40;;
36233;SDS011;43467;50.890;5.982;2022-12-07T09:18:11;36.50;;;24.88;;
36233;SDS011;43467;50.890;5.982;2022-12-07T09:20:37;45.05;;;26.08;;
36233;SDS011;43467;50.890;5.982;2022-12-07T09:23:02;40.58;;;26.27;;
36233;SDS011;43467;50.890;5.982;2022-12-07T09:25:31;36.95;;;24.73;;
36233;SDS011;43467;50.890;5.982;2022-12-07T09:27:57;44.30;;;25.70;;
36233;SDS011;43467;50.890;5.982;2022-12-07T09:30:23;44.47;;;27.33;;
36233;SDS011;43467;50.890;5.982;2022-12-07T09:32:48;40.10;;;24.73;;
36233;SDS011;43467;50.890;5.982;2022-12-07T09:35:14;39.75;;;24.30;;
36233;SDS011;43467;50.890;5.982;2022-12-07T09:37:39;41.67;;;24.23;;
36233;SDS011;43467;50.890;5.982;2022-12-07T09:40:05;36.83;;;22.88;;
36233;SDS011;43467;50.890;5.982;2022-12-07T09:42:37;38.80;;;25.40;;
36233;SDS011;43467;50.890;5.982;2022-12-07T09:45:30;37.25;;;24.15;;
36233;SDS011;43467;50.890;5.982;2022-12-07T09:47:55;42.03;;;25.05;;
36233;SDS011;43467;50.890;5.982;2022-12-07T09:50:24;37.28;;;24.60;;
36233;SDS011;43467;50.890;5.982;2022-12-07T09:52:51;41.45;;;24.63;;
36233;SDS011;43467;50.890;5.982;2022-12-07T09:55:28;42.17;;;24.00;;
36233;SDS011;43467;50.890;5.982;2022-12-07T09:57:55;37.45;;;23.98;;
36233;SDS011;43467;50.890;5.982;2022-12-07T10:00:23;44.50;;;24.45;;
36233;SDS011;43467;50.890;5.982;2022-12-07T10:02:52;34.35;;;22.92;;
36233;SDS011;43467;50.890;5.982;2022-12-07T10:05:23;42.22;;;23.85;;
36233;SDS011;43467;50.890;5.982;2022-12-07T10:07:52;39.03;;;24.83;;
36233;SDS011;43467;50.890;5.982;2022-12-07T10:10:20;35.40;;;22.90;;
36233;SDS011;43467;50.890;5.982;2022-12-07T10:12:53;37.63;;;23.83;;
36233;SDS011;43467;50.890;5.982;2022-12-07T10:15:22;41.88;;;26.15;;
36233;SDS011;43467;50.890;5.982;2022-12-07T10:17:48;41.35;;;23.95;;
36233;SDS011;43467;50.890;5.982;2022-12-07T10:20:23;38.53;;;24.30;;
36233;SDS011;43467;50.890;5.982;2022-12-07T10:22:57;39.35;;;23.92;;
36233;SDS011;43467;50.890;5.982;2022-12-07T10:25:25;36.83;;;25.27;;
36233;SDS011;43467;50.890;5.982;2022-12-07T10:30:33;40.65;;;24.70;;
36233;SDS011;43467;50.890;5.982;2022-12-07T10:35:53;37.55;;;24.58;;
36233;SDS011;43467;50.890;5.982;2022-12-07T10:38:18;37.65;;;23.88;;
36233;SDS011;43467;50.890;5.982;2022-12-07T10:40:43;34.67;;;22.98;;
36233;SDS011;43467;50.890;5.982;2022-12-07T10:50:52;31.63;;;21.85;;
36233;SDS011;43467;50.890;5.982;2022-12-07T10:54:04;32.13;;;21.85;;
36233;SDS011;43467;50.890;5.982;2022-12-07T10:56:44;37.50;;;23.08;;
36233;SDS011;43467;50.890;5.982;2022-12-07T10:59:21;29.30;;;20.85;;
36233;SDS011;43467;50.890;5.982;2022-12-07T11:05:11;38.90;;;20.00;;
36233;SDS011;43467;50.890;5.982;2022-12-07T11:10:26;31.52;;;19.88;;
36233;SDS011;43467;50.890;5.982;2022-12-07T11:18:44;32.67;;;21.27;;
36233;SDS011;43467;50.890;5.982;2022-12-07T11:24:01;35.60;;;21.65;;
36233;SDS011;43467;50.890;5.982;2022-12-07T11:40:20;26.52;;;16.23;;
36233;SDS011;43467;50.890;5.982;2022-12-07T11:42:51;25.25;;;16.10;;
36233;SDS011;43467;50.890;5.982;2022-12-07T11:45:27;22.53;;;13.87;;
36233;SDS011;43467;50.890;5.982;2022-12-07T11:48:08;25.65;;;14.57;;
36233;SDS011;43467;50.890;5.982;2022-12-07T11:50:53;20.50;;;12.88;;
36233;SDS011;43467;50.890;5.982;2022-12-07T12:01:19;21.38;;;13.00;;
36233;SDS011;43467;50.890;5.982;2022-12-07T12:03:51;19.83;;;12.48;;
36233;SDS011;43467;50.890;5.982;2022-12-07T12:06:19;18.35;;;12.10;;
36233;SDS011;43467;50.890;5.982;2022-12-07T12:08:47;21.90;;;13.27;;
36233;SDS011;43467;50.890;5.982;2022-12-07T12:14:02;19.40;;;12.10;;
36233;SDS011;43467;50.890;5.982;2022-12-07T12:16:55;18.45;;;12.05;;
36233;SDS011;43467;50.890;5.982;2022-12-07T12:22:09;22.48;;;13.00;;
36233;SDS011;43467;50.890;5.982;2022-12-07T12:24:49;19.98;;;11.52;;
36233;SDS011;43467;50.890;5.982;2022-12-07T12:29:54;22.70;;;10.68;;
36233;SDS011;43467;50.890;5.982;2022-12-07T12:32:22;14.90;;;10.32;;
36233;SDS011;43467;50.890;5.982;2022-12-07T12:38:26;17.52;;;8.35;;
36233;SDS011;43467;50.890;5.982;2022-12-07T12:40:52;19.48;;;12.05;;
36233;SDS011;43467;50.890;5.982;2022-12-07T12:49:40;16.48;;;8.90;;
36233;SDS011;43467;50.890;5.982;2022-12-07T13:13:01;17.85;;;8.95;;
36233;SDS011;43467;50.890;5.982;2022-12-07T13:15:37;15.25;;;8.85;;
36233;SDS011;43467;50.890;5.982;2022-12-07T13:18:04;15.18;;;8.95;;
36233;SDS011;43467;50.890;5.982;2022-12-07T13:20:52;17.98;;;9.23;;
36233;SDS011;43467;50.890;5.982;2022-12-07T13:23:22;18.80;;;9.77;;
36233;SDS011;43467;50.890;5.982;2022-12-07T13:25:54;13.68;;;8.43;;
36233;SDS011;43467;50.890;5.982;2022-12-07T13:28:26;14.82;;;8.65;;
36233;SDS011;43467;50.890;5.982;2022-12-07T13:33:44;26.33;;;11.73;;
36233;SDS011;43467;50.890;5.982;2022-12-07T13:36:16;15.65;;;9.25;;
36233;SDS011;43467;50.890;5.982;2022-12-07T13:38:53;16.75;;;9.70;;
36233;SDS011;43467;50.890;5.982;2022-12-07T13:41:23;15.90;;;9.70;;
36233;SDS011;43467;50.890;5.982;2022-12-07T13:43:54;16.55;;;10.00;;
36233;SDS011;43467;50.890;5.982;2022-12-07T13:46:31;18.75;;;10.45;;
36233;SDS011;43467;50.890;5.982;2022-12-07T13:49:17;19.35;;;10.30;;
36233;SDS011;43467;50.890;5.982;2022-12-07T13:51:44;18.80;;;10.98;;
36233;SDS011;43467;50.890;5.982;2022-12-07T13:54:10;20.25;;;10.02;;
36233;SDS011;43467;50.890;5.982;2022-12-07T13:56:37;14.80;;;10.38;;
36233;SDS011;43467;50.890;5.982;2022-12-07T13:59:17;20.42;;;10.60;;
36233;SDS011;43467;50.890;5.982;2022-12-07T14:01:48;18.02;;;10.23;;
36233;SDS011;43467;50.890;5.982;2022-12-07T14:06:50;16.73;;;9.80;;
36233;SDS011;43467;50.890;5.982;2022-12-07T14:11:46;18.15;;;10.32;;
36233;SDS011;43467;50.890;5.982;2022-12-07T14:14:15;16.42;;;10.25;;
36233;SDS011;43467;50.890;5.982;2022-12-07T14:16:43;15.73;;;9.82;;
36233;SDS011;43467;50.890;5.982;2022-12-07T14:19:47;19.67;;;10.32;;
36233;SDS011;43467;50.890;5.982;2022-12-07T14:27:56;13.07;;;8.77;;
36233;SDS011;43467;50.890;5.982;2022-12-07T14:30:27;16.25;;;8.95;;
36233;SDS011;43467;50.890;5.982;2022-12-07T14:32:57;17.27;;;8.57;;
36233;SDS011;43467;50.890;5.982;2022-12-07T14:35:27;17.45;;;8.95;;
36233;SDS011;43467;50.890;5.982;2022-12-07T14:37:54;12.05;;;7.65;;
36233;SDS011;43467;50.890;5.982;2022-12-07T14:40:23;19.80;;;8.23;;
36233;SDS011;43467;50.890;5.982;2022-12-07T14:43:02;16.40;;;7.40;;
36233;SDS011;43467;50.890;5.982;2022-12-07T14:45:30;14.60;;;6.93;;
36233;SDS011;43467;50.890;5.982;2022-12-07T14:47:55;15.27;;;7.97;;
36233;SDS011;43467;50.890;5.982;2022-12-07T14:50:21;14.05;;;6.32;;
36233;SDS011;43467;50.890;5.982;2022-12-07T14:52:48;13.30;;;6.13;;
36233;SDS011;43467;50.890;5.982;2022-12-07T14:55:24;10.50;;;5.90;;
36233;SDS011;43467;50.890;5.982;2022-12-07T14:57:51;11.40;;;5.18;;
36233;SDS011;43467;50.890;5.982;2022-12-07T15:00:17;10.18;;;5.15;;
36233;SDS011;43467;50.890;5.982;2022-12-07T15:02:44;19.75;;;5.93;;
36233;SDS011;43467;50.890;5.982;2022-12-07T15:05:12;12.82;;;5.32;;
36233;SDS011;43467;50.890;5.982;2022-12-07T15:07:38;13.35;;;5.90;;
36233;SDS011;43467;50.890;5.982;2022-12-07T15:10:03;11.93;;;6.35;;
36233;SDS011;43467;50.890;5.982;2022-12-07T15:12:29;18.95;;;6.60;;
36233;SDS011;43467;50.890;5.982;2022-12-07T15:14:54;18.15;;;6.22;;
36233;SDS011;43467;50.890;5.982;2022-12-07T15:17:20;19.95;;;7.07;;
36233;SDS011;43467;50.890;5.982;2022-12-07T15:19:45;15.63;;;6.28;;
36233;SDS011;43467;50.890;5.982;2022-12-07T15:22:11;13.95;;;5.72;;
36233;SDS011;43467;50.890;5.982;2022-12-07T15:24:36;12.10;;;5.80;;
36233;SDS011;43467;50.890;5.982;2022-12-07T15:27:02;11.85;;;5.88;;
36233;SDS011;43467;50.890;5.982;2022-12-07T15:29:27;10.95;;;5.38;;
36233;SDS011;43467;50.890;5.982;2022-12-07T15:31:53;14.18;;;6.43;;
36233;SDS011;43467;50.890;5.982;2022-12-07T15:34:18;16.85;;;6.03;;
36233;SDS011;43467;50.890;5.982;2022-12-07T15:36:44;11.82;;;5.90;;
36233;SDS011;43467;50.890;5.982;2022-12-07T15:39:09;10.32;;;5.05;;
36233;SDS011;43467;50.890;5.982;2022-12-07T15:41:35;10.85;;;5.63;;
36233;SDS011;43467;50.890;5.982;2022-12-07T15:44:01;15.40;;;6.00;;
36233;SDS011;43467;50.890;5.982;2022-12-07T15:46:45;12.57;;;5.63;;
36233;SDS011;43467;50.890;5.982;2022-12-07T15:49:14;11.35;;;4.65;;
36233;SDS011;43467;50.890;5.982;2022-12-07T15:51:42;10.30;;;5.20;;
36233;SDS011;43467;50.890;5.982;2022-12-07T15:54:11;10.98;;;5.18;;
36233;SDS011;43467;50.890;5.982;2022-12-07T15:56:40;14.65;;;6.20;;
36233;SDS011;43467;50.890;5.982;2022-12-07T15:59:06;10.75;;;5.13;;
36233;SDS011;43467;50.890;5.982;2022-12-07T16:01:31;7.40;;;4.90;;
36233;SDS011;43467;50.890;5.982;2022-12-07T16:03:56;15.52;;;5.78;;
36233;SDS011;43467;50.890;5.982;2022-12-07T16:06:22;10.80;;;5.10;;
36233;SDS011;43467;50.890;5.982;2022-12-07T16:08:47;9.40;;;5.75;;
36233;SDS011;43467;50.890;5.982;2022-12-07T16:11:13;11.57;;;4.72;;
36233;SDS011;43467;50.890;5.982;2022-12-07T16:13:39;13.13;;;4.68;;
36233;SDS011;43467;50.890;5.982;2022-12-07T16:16:09;14.23;;;5.43;;
36233;SDS011;43467;50.890;5.982;2022-12-07T16:18:36;8.15;;;5.00;;
36233;SDS011;43467;50.890;5.982;2022-12-07T16:21:02;9.57;;;4.20;;
36233;SDS011;43467;50.890;5.982;2022-12-07T16:23:27;12.27;;;4.53;;
36233;SDS011;43467;50.890;5.982;2022-12-07T16:25:53;12.48;;;4.78;;
36233;SDS011;43467;50.890;5.982;2022-12-07T16:28:18;12.50;;;4.30;;
36233;SDS011;43467;50.890;5.982;2022-12-07T16:30:44;12.02;;;4.82;;
36233;SDS011;43467;50.890;5.982;2022-12-07T16:33:09;9.70;;;4.68;;
36233;SDS011;43467;50.890;5.982;2022-12-07T16:35:38;9.07;;;4.68;;